Belgium, WI (53004)

2:49 PM CDT on April 25, 2015 (GMT -0500)
Silver Beach | | Change Station
CLOSE
Current Station
Personal Weather Station
Location: Belgium, WI
Elevation: 614 ft
Nearby Weather Stations

Elev 614 ft 43.51 °N, 87.79 °W | Updated 12 minutes ago

Overcast
Overcast
41.2 °F
Feels Like 33 °F
N
18.1
Wind Variable Wind from NE

Today
High -- | Low -- °F
--% Chance of Precip.
Yesterday
High -- | Low -- °F
Precip. -- in
5:53 AM 7:46 PM
Waxing Crescent, 48% visible
Pressure 29.84 in
Visibility 10.0 miles
Clouds Mostly Cloudy 4900 ft
Overcast 7500 ft
Windchill 33 °F
Dew Point 33 °F
Humidity 73%
Rainfall 0.00 in
Snow Depth Not available.
UV 3 out of 12
Pollen 2.80 out of 12
Air Quality Not available.
Flu Activity Local Activity
METAR KETB 251930Z AUTO 05012G20KT 10SM BKN049 OVC075 07/M05 A2984 RMK AO2

More Conditions Fewer Conditions

Pressure 29.84 in
Visibility 10.0 miles
Clouds Mostly Cloudy 4900 ft
Overcast 7500 ft
Windchill 33 °F
Dew Point 33 °F
Humidity 73%
Rainfall 0.00 in
Snow Depth Not available.
UV 3 out of 12
Pollen 2.80 out of 12
Air Quality Not available.
Flu Activity Local Activity
METAR KETB 251930Z AUTO 05012G20KT 10SM BKN049 OVC075 07/M05 A2984 RMK AO2

More Conditions Fewer Conditions

10-Day Weather Forecast

Almanac

Astronomy

Apr. 25, 2015 Rise Set
Actual Time
Civil Twilight
Nautical Twilight
Astronomical Twilight
Moon
Length of Visible Light
Length of Day
Tomorrow will be .
, % of the Moon is Illuminated

Today's Extremes

State Highs State Lows

Community

WunderPhotos

Upload Photos

1,816,791 photos uploaded!

WunderBlogs® & News

Nearby

Air Quality

  Air Quality AQ Index Pollutant
Not available.

Snow Depth

Station Depth Elevation

Earthquake Activity

City Distance Mag. Time & Date
Minimum magnitude displayed is 2.5.

Coastal Water Temperatures

Place Temperature

Stations

Nearby Weather Stations

Station Location Temp. Windchill Dew Point Humidity Wind Precip. Elev Updated Type